sensor_id;sensor_type;location;lat;lon;timestamp;P1;durP1;ratioP1;P2;durP2;ratioP2
10761;SDS011;5433;50.862;4.320;2023-01-08T00:01:55;5.75;;;3.17;;
10761;SDS011;5433;50.862;4.320;2023-01-08T00:04:21;4.43;;;2.97;;
10761;SDS011;5433;50.862;4.320;2023-01-08T00:06:47;5.82;;;2.47;;
10761;SDS011;5433;50.862;4.320;2023-01-08T00:09:13;3.10;;;0.98;;
10761;SDS011;5433;50.862;4.320;2023-01-08T00:11:39;3.13;;;0.90;;
10761;SDS011;5433;50.862;4.320;2023-01-08T00:14:05;4.18;;;0.93;;
10761;SDS011;5433;50.862;4.320;2023-01-08T00:16:31;2.85;;;0.80;;
10761;SDS011;5433;50.862;4.320;2023-01-08T00:18:57;2.38;;;0.60;;
10761;SDS011;5433;50.862;4.320;2023-01-08T00:21:23;2.47;;;0.60;;
10761;SDS011;5433;50.862;4.320;2023-01-08T00:23:49;3.10;;;0.80;;
10761;SDS011;5433;50.862;4.320;2023-01-08T00:26:15;3.47;;;1.00;;
10761;SDS011;5433;50.862;4.320;2023-01-08T00:28:41;2.70;;;0.90;;
10761;SDS011;5433;50.862;4.320;2023-01-08T00:31:08;2.10;;;0.60;;
10761;SDS011;5433;50.862;4.320;2023-01-08T00:33:34;2.92;;;1.00;;
10761;SDS011;5433;50.862;4.320;2023-01-08T00:36:05;2.33;;;0.95;;
10761;SDS011;5433;50.862;4.320;2023-01-08T00:38:32;1.63;;;0.90;;
10761;SDS011;5433;50.862;4.320;2023-01-08T00:40:58;4.47;;;1.00;;
10761;SDS011;5433;50.862;4.320;2023-01-08T00:43:24;2.17;;;0.90;;
10761;SDS011;5433;50.862;4.320;2023-01-08T00:45:50;1.67;;;0.90;;
10761;SDS011;5433;50.862;4.320;2023-01-08T00:48:17;4.50;;;0.90;;
10761;SDS011;5433;50.862;4.320;2023-01-08T00:50:43;2.00;;;0.90;;
10761;SDS011;5433;50.862;4.320;2023-01-08T00:53:09;3.25;;;0.80;;
10761;SDS011;5433;50.862;4.320;2023-01-08T00:55:35;2.65;;;0.90;;
10761;SDS011;5433;50.862;4.320;2023-01-08T00:58:01;2.75;;;0.90;;
10761;SDS011;5433;50.862;4.320;2023-01-08T01:00:27;3.42;;;1.20;;
10761;SDS011;5433;50.862;4.320;2023-01-08T01:02:55;3.28;;;0.90;;
10761;SDS011;5433;50.862;4.320;2023-01-08T01:05:21;4.13;;;0.90;;
10761;SDS011;5433;50.862;4.320;2023-01-08T01:07:47;3.65;;;0.88;;
10761;SDS011;5433;50.862;4.320;2023-01-08T01:10:13;3.25;;;0.90;;
10761;SDS011;5433;50.862;4.320;2023-01-08T01:12:40;3.92;;;0.98;;
10761;SDS011;5433;50.862;4.320;2023-01-08T01:15:07;4.72;;;1.17;;
10761;SDS011;5433;50.862;4.320;2023-01-08T01:17:33;2.60;;;0.90;;
10761;SDS011;5433;50.862;4.320;2023-01-08T01:19:59;5.05;;;1.00;;
10761;SDS011;5433;50.862;4.320;2023-01-08T01:22:26;4.60;;;1.30;;
10761;SDS011;5433;50.862;4.320;2023-01-08T01:24:52;4.00;;;1.10;;
10761;SDS011;5433;50.862;4.320;2023-01-08T01:27:17;2.95;;;0.80;;
10761;SDS011;5433;50.862;4.320;2023-01-08T01:29:45;3.28;;;1.20;;
10761;SDS011;5433;50.862;4.320;2023-01-08T01:32:11;4.40;;;1.00;;
10761;SDS011;5433;50.862;4.320;2023-01-08T01:34:37;2.22;;;1.00;;
10761;SDS011;5433;50.862;4.320;2023-01-08T01:37:03;4.63;;;0.90;;
10761;SDS011;5433;50.862;4.320;2023-01-08T01:39:31;1.98;;;0.93;;
10761;SDS011;5433;50.862;4.320;2023-01-08T01:41:57;3.45;;;1.10;;
10761;SDS011;5433;50.862;4.320;2023-01-08T01:44:40;2.17;;;0.90;;
10761;SDS011;5433;50.862;4.320;2023-01-08T01:49:35;5.07;;;1.45;;
10761;SDS011;5433;50.862;4.320;2023-01-08T01:52:01;3.60;;;1.40;;
10761;SDS011;5433;50.862;4.320;2023-01-08T01:54:28;5.15;;;1.50;;
10761;SDS011;5433;50.862;4.320;2023-01-08T01:56:55;3.78;;;1.40;;
10761;SDS011;5433;50.862;4.320;2023-01-08T01:59:21;4.38;;;1.80;;
10761;SDS011;5433;50.862;4.320;2023-01-08T02:01:47;4.25;;;1.50;;
10761;SDS011;5433;50.862;4.320;2023-01-08T02:04:14;3.28;;;1.65;;
10761;SDS011;5433;50.862;4.320;2023-01-08T02:07:15;2.80;;;1.52;;
10761;SDS011;5433;50.862;4.320;2023-01-08T02:09:44;6.20;;;1.80;;
10761;SDS011;5433;50.862;4.320;2023-01-08T02:12:18;6.68;;;1.83;;
10761;SDS011;5433;50.862;4.320;2023-01-08T02:17:21;4.28;;;1.67;;
10761;SDS011;5433;50.862;4.320;2023-01-08T02:19:50;3.17;;;1.92;;
10761;SDS011;5433;50.862;4.320;2023-01-08T02:27:15;3.25;;;1.70;;
10761;SDS011;5433;50.862;4.320;2023-01-08T02:29:41;5.10;;;2.00;;
10761;SDS011;5433;50.862;4.320;2023-01-08T02:32:07;5.40;;;2.15;;
10761;SDS011;5433;50.862;4.320;2023-01-08T02:34:33;7.28;;;2.38;;
10761;SDS011;5433;50.862;4.320;2023-01-08T02:36:59;4.25;;;1.98;;
10761;SDS011;5433;50.862;4.320;2023-01-08T02:39:36;4.82;;;2.30;;
10761;SDS011;5433;50.862;4.320;2023-01-08T02:42:15;4.63;;;2.00;;
10761;SDS011;5433;50.862;4.320;2023-01-08T02:45:04;5.40;;;1.88;;
10761;SDS011;5433;50.862;4.320;2023-01-08T02:47:44;3.78;;;1.58;;
10761;SDS011;5433;50.862;4.320;2023-01-08T02:55:40;1.52;;;1.13;;
10761;SDS011;5433;50.862;4.320;2023-01-08T02:58:07;2.15;;;1.38;;
10761;SDS011;5433;50.862;4.320;2023-01-08T03:00:33;2.65;;;1.30;;
10761;SDS011;5433;50.862;4.320;2023-01-08T03:03:04;1.98;;;1.20;;
10761;SDS011;5433;50.862;4.320;2023-01-08T03:05:32;2.13;;;1.25;;
10761;SDS011;5433;50.862;4.320;2023-01-08T03:07:58;3.47;;;1.40;;
10761;SDS011;5433;50.862;4.320;2023-01-08T03:10:25;2.55;;;1.50;;
10761;SDS011;5433;50.862;4.320;2023-01-08T03:12:53;2.75;;;1.40;;
10761;SDS011;5433;50.862;4.320;2023-01-08T03:15:24;5.13;;;1.70;;
10761;SDS011;5433;50.862;4.320;2023-01-08T03:17:53;3.40;;;1.60;;
10761;SDS011;5433;50.862;4.320;2023-01-08T03:20:21;3.08;;;1.73;;
10761;SDS011;5433;50.862;4.320;2023-01-08T03:22:48;4.72;;;1.92;;
10761;SDS011;5433;50.862;4.320;2023-01-08T03:25:15;3.83;;;1.65;;
10761;SDS011;5433;50.862;4.320;2023-01-08T03:27:44;3.78;;;1.67;;
10761;SDS011;5433;50.862;4.320;2023-01-08T03:30:11;2.25;;;1.50;;
10761;SDS011;5433;50.862;4.320;2023-01-08T03:32:39;4.43;;;1.75;;
10761;SDS011;5433;50.862;4.320;2023-01-08T03:35:07;3.22;;;1.50;;
10761;SDS011;5433;50.862;4.320;2023-01-08T03:37:36;3.60;;;1.58;;
10761;SDS011;5433;50.862;4.320;2023-01-08T03:40:04;3.80;;;1.73;;
10761;SDS011;5433;50.862;4.320;2023-01-08T03:42:32;3.70;;;1.58;;
10761;SDS011;5433;50.862;4.320;2023-01-08T03:44:58;3.90;;;1.30;;
10761;SDS011;5433;50.862;4.320;2023-01-08T03:47:26;5.22;;;1.20;;
10761;SDS011;5433;50.862;4.320;2023-01-08T03:49:52;5.35;;;1.30;;
10761;SDS011;5433;50.862;4.320;2023-01-08T03:52:20;3.40;;;1.02;;
10761;SDS011;5433;50.862;4.320;2023-01-08T03:54:46;4.93;;;1.20;;
10761;SDS011;5433;50.862;4.320;2023-01-08T03:57:12;4.30;;;1.20;;
10761;SDS011;5433;50.862;4.320;2023-01-08T03:59:38;2.88;;;1.00;;
10761;SDS011;5433;50.862;4.320;2023-01-08T04:02:04;5.13;;;1.30;;
10761;SDS011;5433;50.862;4.320;2023-01-08T04:04:30;7.57;;;1.33;;
10761;SDS011;5433;50.862;4.320;2023-01-08T04:06:56;4.93;;;1.15;;
10761;SDS011;5433;50.862;4.320;2023-01-08T04:09:22;5.20;;;1.40;;
10761;SDS011;5433;50.862;4.320;2023-01-08T04:11:48;3.60;;;1.30;;
10761;SDS011;5433;50.862;4.320;2023-01-08T04:14:14;5.43;;;1.20;;
10761;SDS011;5433;50.862;4.320;2023-01-08T04:16:40;5.80;;;1.38;;
10761;SDS011;5433;50.862;4.320;2023-01-08T04:19:06;4.47;;;1.35;;
10761;SDS011;5433;50.862;4.320;2023-01-08T04:21:32;6.20;;;1.40;;
10761;SDS011;5433;50.862;4.320;2023-01-08T04:23:58;4.97;;;1.42;;
10761;SDS011;5433;50.862;4.320;2023-01-08T04:26:24;7.55;;;1.25;;
10761;SDS011;5433;50.862;4.320;2023-01-08T04:28:50;4.38;;;1.27;;
10761;SDS011;5433;50.862;4.320;2023-01-08T04:31:16;6.55;;;1.60;;
10761;SDS011;5433;50.862;4.320;2023-01-08T04:33:42;3.03;;;1.23;;
10761;SDS011;5433;50.862;4.320;2023-01-08T04:36:08;6.15;;;1.30;;
10761;SDS011;5433;50.862;4.320;2023-01-08T04:38:34;8.93;;;1.40;;
10761;SDS011;5433;50.862;4.320;2023-01-08T04:41:00;4.25;;;1.33;;
10761;SDS011;5433;50.862;4.320;2023-01-08T04:43:26;4.68;;;1.30;;
10761;SDS011;5433;50.862;4.320;2023-01-08T04:45:56;6.65;;;1.42;;
10761;SDS011;5433;50.862;4.320;2023-01-08T04:48:22;8.50;;;1.60;;
10761;SDS011;5433;50.862;4.320;2023-01-08T04:50:48;6.22;;;1.50;;
10761;SDS011;5433;50.862;4.320;2023-01-08T04:53:15;5.80;;;1.52;;
10761;SDS011;5433;50.862;4.320;2023-01-08T04:55:41;5.80;;;1.48;;
10761;SDS011;5433;50.862;4.320;2023-01-08T04:58:07;10.00;;;1.73;;
10761;SDS011;5433;50.862;4.320;2023-01-08T05:00:33;3.92;;;1.38;;
10761;SDS011;5433;50.862;4.320;2023-01-08T05:02:59;8.35;;;1.80;;
10761;SDS011;5433;50.862;4.320;2023-01-08T05:05:25;5.55;;;1.30;;
10761;SDS011;5433;50.862;4.320;2023-01-08T05:07:51;9.55;;;1.50;;
10761;SDS011;5433;50.862;4.320;2023-01-08T05:10:18;8.15;;;1.77;;
10761;SDS011;5433;50.862;4.320;2023-01-08T05:12:44;7.07;;;1.40;;
10761;SDS011;5433;50.862;4.320;2023-01-08T05:15:10;6.47;;;1.40;;
10761;SDS011;5433;50.862;4.320;2023-01-08T05:17:36;6.78;;;1.33;;
10761;SDS011;5433;50.862;4.320;2023-01-08T05:20:02;7.20;;;1.50;;
10761;SDS011;5433;50.862;4.320;2023-01-08T05:22:28;8.50;;;1.55;;
10761;SDS011;5433;50.862;4.320;2023-01-08T05:24:54;8.27;;;1.55;;
10761;SDS011;5433;50.862;4.320;2023-01-08T05:27:20;8.48;;;1.45;;
10761;SDS011;5433;50.862;4.320;2023-01-08T05:29:45;4.70;;;1.20;;
10761;SDS011;5433;50.862;4.320;2023-01-08T05:32:16;5.78;;;1.83;;
10761;SDS011;5433;50.862;4.320;2023-01-08T05:34:42;7.72;;;1.85;;
10761;SDS011;5433;50.862;4.320;2023-01-08T05:37:08;6.07;;;1.60;;
10761;SDS011;5433;50.862;4.320;2023-01-08T05:39:34;9.55;;;1.60;;
10761;SDS011;5433;50.862;4.320;2023-01-08T05:42:00;7.05;;;1.70;;
10761;SDS011;5433;50.862;4.320;2023-01-08T05:44:26;7.03;;;1.40;;
10761;SDS011;5433;50.862;4.320;2023-01-08T05:46:52;9.38;;;1.52;;
10761;SDS011;5433;50.862;4.320;2023-01-08T05:49:18;6.35;;;1.40;;
10761;SDS011;5433;50.862;4.320;2023-01-08T05:51:47;9.73;;;1.63;;
10761;SDS011;5433;50.862;4.320;2023-01-08T05:54:15;4.30;;;1.40;;
10761;SDS011;5433;50.862;4.320;2023-01-08T05:56:41;6.18;;;1.42;;
10761;SDS011;5433;50.862;4.320;2023-01-08T05:59:09;6.50;;;1.50;;
10761;SDS011;5433;50.862;4.320;2023-01-08T06:01:36;8.23;;;1.50;;
10761;SDS011;5433;50.862;4.320;2023-01-08T06:04:02;4.10;;;1.33;;
10761;SDS011;5433;50.862;4.320;2023-01-08T06:06:28;4.65;;;1.42;;
10761;SDS011;5433;50.862;4.320;2023-01-08T06:08:54;5.88;;;1.30;;
10761;SDS011;5433;50.862;4.320;2023-01-08T06:11:20;4.28;;;1.35;;
10761;SDS011;5433;50.862;4.320;2023-01-08T06:13:45;6.93;;;1.40;;
10761;SDS011;5433;50.862;4.320;2023-01-08T06:16:11;4.70;;;1.27;;
10761;SDS011;5433;50.862;4.320;2023-01-08T06:18:38;4.68;;;1.50;;
10761;SDS011;5433;50.862;4.320;2023-01-08T06:21:04;4.15;;;1.10;;
10761;SDS011;5433;50.862;4.320;2023-01-08T06:23:30;6.60;;;1.42;;
10761;SDS011;5433;50.862;4.320;2023-01-08T06:25:57;6.40;;;1.20;;
10761;SDS011;5433;50.862;4.320;2023-01-08T06:28:23;6.10;;;1.13;;
10761;SDS011;5433;50.862;4.320;2023-01-08T06:30:49;6.03;;;1.30;;
10761;SDS011;5433;50.862;4.320;2023-01-08T06:33:15;7.80;;;1.58;;
10761;SDS011;5433;50.862;4.320;2023-01-08T06:35:41;5.43;;;1.30;;
10761;SDS011;5433;50.862;4.320;2023-01-08T06:38:07;6.55;;;1.30;;
10761;SDS011;5433;50.862;4.320;2023-01-08T06:40:33;4.80;;;1.10;;
10761;SDS011;5433;50.862;4.320;2023-01-08T06:43:02;5.80;;;1.38;;
10761;SDS011;5433;50.862;4.320;2023-01-08T06:45:29;7.10;;;1.60;;
10761;SDS011;5433;50.862;4.320;2023-01-08T06:47:59;7.70;;;1.40;;
10761;SDS011;5433;50.862;4.320;2023-01-08T06:50:26;5.80;;;1.48;;
10761;SDS011;5433;50.862;4.320;2023-01-08T06:52:52;7.35;;;1.70;;
10761;SDS011;5433;50.862;4.320;2023-01-08T06:55:19;8.15;;;1.50;;
10761;SDS011;5433;50.862;4.320;2023-01-08T06:57:45;7.38;;;1.52;;
10761;SDS011;5433;50.862;4.320;2023-01-08T07:00:11;3.60;;;1.23;;
10761;SDS011;5433;50.862;4.320;2023-01-08T07:02:37;6.78;;;1.40;;
10761;SDS011;5433;50.862;4.320;2023-01-08T07:05:03;6.45;;;1.50;;
10761;SDS011;5433;50.862;4.320;2023-01-08T07:07:29;6.43;;;1.67;;
10761;SDS011;5433;50.862;4.320;2023-01-08T07:09:55;6.80;;;1.50;;
10761;SDS011;5433;50.862;4.320;2023-01-08T07:12:21;6.95;;;1.73;;
10761;SDS011;5433;50.862;4.320;2023-01-08T07:14:47;6.90;;;1.65;;
10761;SDS011;5433;50.862;4.320;2023-01-08T07:17:13;7.65;;;1.73;;
10761;SDS011;5433;50.862;4.320;2023-01-08T07:19:39;10.50;;;1.60;;
10761;SDS011;5433;50.862;4.320;2023-01-08T07:22:05;6.10;;;1.55;;
10761;SDS011;5433;50.862;4.320;2023-01-08T07:24:31;4.85;;;1.83;;
10761;SDS011;5433;50.862;4.320;2023-01-08T07:26:57;7.38;;;1.80;;
10761;SDS011;5433;50.862;4.320;2023-01-08T07:29:23;8.90;;;1.95;;
10761;SDS011;5433;50.862;4.320;2023-01-08T07:31:49;6.13;;;1.52;;
10761;SDS011;5433;50.862;4.320;2023-01-08T07:34:15;7.07;;;1.73;;
10761;SDS011;5433;50.862;4.320;2023-01-08T07:36:41;7.53;;;1.70;;
10761;SDS011;5433;50.862;4.320;2023-01-08T07:39:07;6.53;;;1.67;;
10761;SDS011;5433;50.862;4.320;2023-01-08T07:41:33;7.03;;;1.83;;
10761;SDS011;5433;50.862;4.320;2023-01-08T07:43:59;12.48;;;2.17;;
10761;SDS011;5433;50.862;4.320;2023-01-08T07:46:25;9.63;;;1.90;;
10761;SDS011;5433;50.862;4.320;2023-01-08T07:48:51;7.70;;;1.85;;
10761;SDS011;5433;50.862;4.320;2023-01-08T07:51:17;6.18;;;1.73;;
10761;SDS011;5433;50.862;4.320;2023-01-08T07:53:42;5.75;;;1.85;;
10761;SDS011;5433;50.862;4.320;2023-01-08T07:56:09;6.28;;;2.17;;
10761;SDS011;5433;50.862;4.320;2023-01-08T07:58:35;5.53;;;1.83;;
10761;SDS011;5433;50.862;4.320;2023-01-08T08:01:01;6.72;;;1.80;;
10761;SDS011;5433;50.862;4.320;2023-01-08T08:03:27;5.05;;;1.80;;
10761;SDS011;5433;50.862;4.320;2023-01-08T08:05:53;6.63;;;2.08;;
10761;SDS011;5433;50.862;4.320;2023-01-08T08:08:19;7.50;;;1.60;;
10761;SDS011;5433;50.862;4.320;2023-01-08T08:10:45;6.35;;;1.60;;
10761;SDS011;5433;50.862;4.320;2023-01-08T08:13:11;7.88;;;1.90;;
10761;SDS011;5433;50.862;4.320;2023-01-08T08:15:38;7.28;;;1.80;;
10761;SDS011;5433;50.862;4.320;2023-01-08T08:18:05;5.72;;;1.70;;
10761;SDS011;5433;50.862;4.320;2023-01-08T08:20:31;7.53;;;1.70;;
10761;SDS011;5433;50.862;4.320;2023-01-08T08:23:01;5.97;;;1.60;;
10761;SDS011;5433;50.862;4.320;2023-01-08T08:25:27;6.93;;;1.65;;
10761;SDS011;5433;50.862;4.320;2023-01-08T08:27:55;4.07;;;1.67;;
10761;SDS011;5433;50.862;4.320;2023-01-08T08:30:21;5.93;;;1.60;;
10761;SDS011;5433;50.862;4.320;2023-01-08T08:32:47;7.40;;;2.03;;
10761;SDS011;5433;50.862;4.320;2023-01-08T08:35:13;7.35;;;1.67;;
10761;SDS011;5433;50.862;4.320;2023-01-08T08:37:42;5.97;;;1.60;;
10761;SDS011;5433;50.862;4.320;2023-01-08T08:40:08;8.68;;;1.73;;
10761;SDS011;5433;50.862;4.320;2023-01-08T08:42:34;4.78;;;1.50;;
10761;SDS011;5433;50.862;4.320;2023-01-08T08:45:00;6.15;;;1.50;;
10761;SDS011;5433;50.862;4.320;2023-01-08T08:47:26;4.05;;;1.40;;
10761;SDS011;5433;50.862;4.320;2023-01-08T08:49:52;5.65;;;1.90;;
10761;SDS011;5433;50.862;4.320;2023-01-08T08:52:18;3.97;;;1.52;;
10761;SDS011;5433;50.862;4.320;2023-01-08T08:54:44;3.70;;;1.60;;
10761;SDS011;5433;50.862;4.320;2023-01-08T08:57:10;3.38;;;1.40;;
10761;SDS011;5433;50.862;4.320;2023-01-08T08:59:36;5.82;;;1.73;;
10761;SDS011;5433;50.862;4.320;2023-01-08T09:02:02;4.05;;;1.48;;
10761;SDS011;5433;50.862;4.320;2023-01-08T09:04:31;3.70;;;1.45;;
10761;SDS011;5433;50.862;4.320;2023-01-08T09:06:57;3.05;;;1.30;;
10761;SDS011;5433;50.862;4.320;2023-01-08T09:09:23;4.68;;;1.35;;
10761;SDS011;5433;50.862;4.320;2023-01-08T09:11:49;2.45;;;1.20;;
10761;SDS011;5433;50.862;4.320;2023-01-08T09:14:15;2.60;;;1.35;;
10761;SDS011;5433;50.862;4.320;2023-01-08T09:16:41;2.88;;;0.90;;
10761;SDS011;5433;50.862;4.320;2023-01-08T09:19:08;1.83;;;0.90;;
10761;SDS011;5433;50.862;4.320;2023-01-08T09:21:34;1.90;;;0.70;;
10761;SDS011;5433;50.862;4.320;2023-01-08T09:24:00;1.48;;;1.00;;
10761;SDS011;5433;50.862;4.320;2023-01-08T09:26:26;1.00;;;0.80;;
10761;SDS011;5433;50.862;4.320;2023-01-08T09:28:54;1.42;;;0.90;;
10761;SDS011;5433;50.862;4.320;2023-01-08T09:31:20;1.67;;;0.75;;
10761;SDS011;5433;50.862;4.320;2023-01-08T09:33:46;1.17;;;0.63;;
10761;SDS011;5433;50.862;4.320;2023-01-08T09:36:13;0.60;;;0.60;;
10761;SDS011;5433;50.862;4.320;2023-01-08T09:38:39;0.85;;;0.70;;
10761;SDS011;5433;50.862;4.320;2023-01-08T09:41:09;0.90;;;0.60;;
10761;SDS011;5433;50.862;4.320;2023-01-08T09:43:36;1.13;;;0.73;;
10761;SDS011;5433;50.862;4.320;2023-01-08T09:46:04;2.00;;;0.80;;
10761;SDS011;5433;50.862;4.320;2023-01-08T09:48:32;1.58;;;0.70;;
10761;SDS011;5433;50.862;4.320;2023-01-08T09:50:59;0.93;;;0.60;;
10761;SDS011;5433;50.862;4.320;2023-01-08T09:53:25;1.55;;;0.73;;
10761;SDS011;5433;50.862;4.320;2023-01-08T09:55:55;0.65;;;0.60;;
10761;SDS011;5433;50.862;4.320;2023-01-08T09:58:29;1.05;;;0.70;;
10761;SDS011;5433;50.862;4.320;2023-01-08T10:00:58;1.02;;;0.57;;
10761;SDS011;5433;50.862;4.320;2023-01-08T10:03:26;0.77;;;0.70;;
10761;SDS011;5433;50.862;4.320;2023-01-08T10:05:53;2.15;;;0.80;;
10761;SDS011;5433;50.862;4.320;2023-01-08T10:08:19;2.15;;;0.70;;
10761;SDS011;5433;50.862;4.320;2023-01-08T10:10:45;2.40;;;0.85;;
10761;SDS011;5433;50.862;4.320;2023-01-08T10:13:11;1.90;;;1.45;;
10761;SDS011;5433;50.862;4.320;2023-01-08T10:15:38;1.30;;;0.90;;
10761;SDS011;5433;50.862;4.320;2023-01-08T10:18:05;2.47;;;0.93;;
10761;SDS011;5433;50.862;4.320;2023-01-08T10:20:32;2.38;;;1.00;;
10761;SDS011;5433;50.862;4.320;2023-01-08T10:23:11;4.53;;;1.38;;
10761;SDS011;5433;50.862;4.320;2023-01-08T10:28:17;2.58;;;0.93;;
10761;SDS011;5433;50.862;4.320;2023-01-08T10:30:44;3.88;;;1.10;;
10761;SDS011;5433;50.862;4.320;2023-01-08T10:33:11;2.92;;;0.95;;
10761;SDS011;5433;50.862;4.320;2023-01-08T10:35:39;2.78;;;0.90;;
10761;SDS011;5433;50.862;4.320;2023-01-08T10:38:05;3.58;;;1.10;;
10761;SDS011;5433;50.862;4.320;2023-01-08T10:43:04;2.70;;;1.00;;
10761;SDS011;5433;50.862;4.320;2023-01-08T10:45:30;5.45;;;1.00;;
10761;SDS011;5433;50.862;4.320;2023-01-08T10:47:58;5.13;;;1.10;;
10761;SDS011;5433;50.862;4.320;2023-01-08T10:50:29;4.05;;;1.10;;
10761;SDS011;5433;50.862;4.320;2023-01-08T10:52:56;3.92;;;1.13;;
10761;SDS011;5433;50.862;4.320;2023-01-08T10:55:24;5.95;;;1.40;;
10761;SDS011;5433;50.862;4.320;2023-01-08T11:00:39;5.60;;;1.02;;
10761;SDS011;5433;50.862;4.320;2023-01-08T11:03:06;3.25;;;1.30;;
10761;SDS011;5433;50.862;4.320;2023-01-08T11:05:37;3.17;;;1.50;;
10761;SDS011;5433;50.862;4.320;2023-01-08T11:08:04;4.20;;;1.10;;
10761;SDS011;5433;50.862;4.320;2023-01-08T11:10:31;5.60;;;1.20;;
10761;SDS011;5433;50.862;4.320;2023-01-08T11:15:44;3.30;;;1.10;;
10761;SDS011;5433;50.862;4.320;2023-01-08T11:18:17;3.58;;;1.33;;
10761;SDS011;5433;50.862;4.320;2023-01-08T11:20:44;5.90;;;1.58;;
10761;SDS011;5433;50.862;4.320;2023-01-08T11:25:47;2.75;;;1.10;;
10761;SDS011;5433;50.862;4.320;2023-01-08T11:28:17;3.28;;;1.05;;
10761;SDS011;5433;50.862;4.320;2023-01-08T11:30:46;7.45;;;1.60;;
10761;SDS011;5433;50.862;4.320;2023-01-08T11:33:15;5.22;;;1.40;;
10761;SDS011;5433;50.862;4.320;2023-01-08T11:35:47;5.35;;;1.30;;
10761;SDS011;5433;50.862;4.320;2023-01-08T11:38:14;7.43;;;1.60;;
10761;SDS011;5433;50.862;4.320;2023-01-08T11:40:43;3.85;;;1.23;;
10761;SDS011;5433;50.862;4.320;2023-01-08T11:43:16;5.93;;;1.52;;
10761;SDS011;5433;50.862;4.320;2023-01-08T11:45:50;5.70;;;1.50;;
10761;SDS011;5433;50.862;4.320;2023-01-08T11:48:28;4.50;;;1.50;;
10761;SDS011;5433;50.862;4.320;2023-01-08T11:51:06;5.10;;;1.50;;
10761;SDS011;5433;50.862;4.320;2023-01-08T11:53:42;2.78;;;1.40;;
10761;SDS011;5433;50.862;4.320;2023-01-08T11:56:32;3.33;;;1.20;;
10761;SDS011;5433;50.862;4.320;2023-01-08T12:09:45;4.60;;;1.23;;
10761;SDS011;5433;50.862;4.320;2023-01-08T12:22:34;5.20;;;1.23;;
10761;SDS011;5433;50.862;4.320;2023-01-08T12:25:16;4.78;;;1.15;;
10761;SDS011;5433;50.862;4.320;2023-01-08T12:27:48;4.22;;;1.02;;
10761;SDS011;5433;50.862;4.320;2023-01-08T12:33:10;6.28;;;1.27;;
10761;SDS011;5433;50.862;4.320;2023-01-08T12:35:39;4.88;;;1.20;;
10761;SDS011;5433;50.862;4.320;2023-01-08T12:38:18;6.78;;;1.63;;
10761;SDS011;5433;50.862;4.320;2023-01-08T12:40:46;3.97;;;1.20;;
10761;SDS011;5433;50.862;4.320;2023-01-08T12:43:17;3.17;;;1.10;;
10761;SDS011;5433;50.862;4.320;2023-01-08T12:45:49;3.75;;;1.17;;
10761;SDS011;5433;50.862;4.320;2023-01-08T12:48:17;5.57;;;1.20;;
10761;SDS011;5433;50.862;4.320;2023-01-08T12:50:56;4.35;;;1.08;;
10761;SDS011;5433;50.862;4.320;2023-01-08T12:53:27;5.10;;;1.20;;
10761;SDS011;5433;50.862;4.320;2023-01-08T13:01:06;4.28;;;1.15;;
10761;SDS011;5433;50.862;4.320;2023-01-08T13:03:36;6.10;;;1.42;;
10761;SDS011;5433;50.862;4.320;2023-01-08T13:06:04;4.32;;;1.15;;
10761;SDS011;5433;50.862;4.320;2023-01-08T13:08:31;2.63;;;1.05;;
10761;SDS011;5433;50.862;4.320;2023-01-08T13:10:58;5.53;;;1.35;;
10761;SDS011;5433;50.862;4.320;2023-01-08T13:13:28;5.28;;;1.20;;
10761;SDS011;5433;50.862;4.320;2023-01-08T13:18:50;4.15;;;1.15;;
10761;SDS011;5433;50.862;4.320;2023-01-08T13:21:16;5.55;;;1.20;;
10761;SDS011;5433;50.862;4.320;2023-01-08T13:23:43;4.72;;;1.30;;
10761;SDS011;5433;50.862;4.320;2023-01-08T13:26:08;3.33;;;1.13;;
10761;SDS011;5433;50.862;4.320;2023-01-08T13:33:48;3.53;;;1.20;;
10761;SDS011;5433;50.862;4.320;2023-01-08T13:36:20;4.50;;;1.10;;
10761;SDS011;5433;50.862;4.320;2023-01-08T13:38:58;4.45;;;1.40;;
10761;SDS011;5433;50.862;4.320;2023-01-08T13:44:00;5.60;;;1.38;;
10761;SDS011;5433;50.862;4.320;2023-01-08T13:46:29;2.58;;;1.10;;
10761;SDS011;5433;50.862;4.320;2023-01-08T13:49:02;6.15;;;1.10;;
10761;SDS011;5433;50.862;4.320;2023-01-08T13:51:44;2.75;;;1.02;;
10761;SDS011;5433;50.862;4.320;2023-01-08T13:56:36;3.90;;;1.10;;
10761;SDS011;5433;50.862;4.320;2023-01-08T13:59:02;4.47;;;1.38;;
10761;SDS011;5433;50.862;4.320;2023-01-08T14:01:32;2.80;;;1.33;;
10761;SDS011;5433;50.862;4.320;2023-01-08T14:03:58;6.38;;;1.48;;
10761;SDS011;5433;50.862;4.320;2023-01-08T14:06:24;5.20;;;1.63;;
10761;SDS011;5433;50.862;4.320;2023-01-08T14:08:52;4.38;;;1.20;;
10761;SDS011;5433;50.862;4.320;2023-01-08T14:11:19;5.80;;;1.45;;
10761;SDS011;5433;50.862;4.320;2023-01-08T14:13:47;4.72;;;1.35;;
10761;SDS011;5433;50.862;4.320;2023-01-08T14:16:13;5.05;;;1.48;;
10761;SDS011;5433;50.862;4.320;2023-01-08T14:18:43;5.85;;;1.48;;
10761;SDS011;5433;50.862;4.320;2023-01-08T14:21:10;4.07;;;1.20;;
10761;SDS011;5433;50.862;4.320;2023-01-08T14:23:37;4.10;;;1.60;;
10761;SDS011;5433;50.862;4.320;2023-01-08T14:26:05;3.30;;;1.17;;
10761;SDS011;5433;50.862;4.320;2023-01-08T14:28:32;4.13;;;1.15;;
10761;SDS011;5433;50.862;4.320;2023-01-08T14:30:59;2.33;;;1.02;;
10761;SDS011;5433;50.862;4.320;2023-01-08T14:33:28;7.00;;;1.48;;
10761;SDS011;5433;50.862;4.320;2023-01-08T14:35:54;4.78;;;1.40;;
10761;SDS011;5433;50.862;4.320;2023-01-08T14:38:21;3.13;;;1.30;;
10761;SDS011;5433;50.862;4.320;2023-01-08T14:40:48;3.50;;;1.52;;
10761;SDS011;5433;50.862;4.320;2023-01-08T14:43:15;4.82;;;1.52;;
10761;SDS011;5433;50.862;4.320;2023-01-08T14:45:46;3.72;;;1.40;;
10761;SDS011;5433;50.862;4.320;2023-01-08T14:50:40;5.55;;;1.40;;
10761;SDS011;5433;50.862;4.320;2023-01-08T14:55:46;5.88;;;1.70;;
10761;SDS011;5433;50.862;4.320;2023-01-08T14:58:14;5.28;;;1.40;;
10761;SDS011;5433;50.862;4.320;2023-01-08T15:00:40;4.95;;;1.48;;
10761;SDS011;5433;50.862;4.320;2023-01-08T15:03:21;6.47;;;1.80;;
10761;SDS011;5433;50.862;4.320;2023-01-08T15:05:52;3.67;;;1.50;;
10761;SDS011;5433;50.862;4.320;2023-01-08T15:10:59;6.18;;;1.50;;
10761;SDS011;5433;50.862;4.320;2023-01-08T15:13:29;3.80;;;1.30;;
10761;SDS011;5433;50.862;4.320;2023-01-08T15:15:56;5.35;;;1.60;;
10761;SDS011;5433;50.862;4.320;2023-01-08T15:18:23;2.65;;;1.40;;
10761;SDS011;5433;50.862;4.320;2023-01-08T15:20:49;3.40;;;1.30;;
10761;SDS011;5433;50.862;4.320;2023-01-08T15:23:31;4.78;;;1.50;;
10761;SDS011;5433;50.862;4.320;2023-01-08T15:32:17;5.60;;;1.50;;
10761;SDS011;5433;50.862;4.320;2023-01-08T15:34:44;5.95;;;1.58;;
10761;SDS011;5433;50.862;4.320;2023-01-08T15:37:11;5.88;;;1.50;;
10761;SDS011;5433;50.862;4.320;2023-01-08T15:39:37;3.33;;;1.30;;
10761;SDS011;5433;50.862;4.320;2023-01-08T15:44:54;5.78;;;2.03;;
10761;SDS011;5433;50.862;4.320;2023-01-08T15:47:19;8.15;;;2.42;;
10761;SDS011;5433;50.862;4.320;2023-01-08T15:49:45;9.80;;;2.78;;
10761;SDS011;5433;50.862;4.320;2023-01-08T15:52:11;9.10;;;2.30;;
10761;SDS011;5433;50.862;4.320;2023-01-08T15:54:37;6.93;;;2.05;;
10761;SDS011;5433;50.862;4.320;2023-01-08T15:57:03;5.47;;;1.73;;
10761;SDS011;5433;50.862;4.320;2023-01-08T15:59:29;6.00;;;1.60;;
10761;SDS011;5433;50.862;4.320;2023-01-08T16:02:02;8.07;;;1.63;;
10761;SDS011;5433;50.862;4.320;2023-01-08T16:04:28;5.18;;;1.52;;
10761;SDS011;5433;50.862;4.320;2023-01-08T16:06:54;4.75;;;1.50;;
10761;SDS011;5433;50.862;4.320;2023-01-08T16:09:20;4.22;;;1.48;;
10761;SDS011;5433;50.862;4.320;2023-01-08T16:11:46;9.25;;;2.35;;
10761;SDS011;5433;50.862;4.320;2023-01-08T16:14:13;7.82;;;1.75;;
10761;SDS011;5433;50.862;4.320;2023-01-08T16:16:39;3.95;;;1.77;;
10761;SDS011;5433;50.862;4.320;2023-01-08T16:19:05;6.13;;;1.83;;
10761;SDS011;5433;50.862;4.320;2023-01-08T16:21:31;7.85;;;1.80;;
10761;SDS011;5433;50.862;4.320;2023-01-08T16:23:57;6.10;;;1.80;;
10761;SDS011;5433;50.862;4.320;2023-01-08T16:26:23;6.20;;;1.92;;
10761;SDS011;5433;50.862;4.320;2023-01-08T16:28:49;5.28;;;1.52;;
10761;SDS011;5433;50.862;4.320;2023-01-08T16:31:15;5.45;;;2.13;;